createdAt,value
2017-02-22T00:00:04.488Z,9.54
2017-02-22T00:00:44.924Z,9.59
2017-02-22T00:01:25.385Z,9.64
2017-02-22T00:02:05.882Z,9.7
2017-02-22T00:02:46.407Z,9.7
2017-02-22T00:03:26.951Z,9.69
2017-02-22T00:04:08.124Z,9.76
2017-02-22T00:04:48.501Z,9.74
2017-02-22T00:05:28.961Z,9.73
2017-02-22T00:06:09.414Z,9.72
2017-02-22T00:06:49.902Z,9.73
2017-02-22T00:07:30.411Z,9.7
2017-02-22T00:08:10.856Z,9.77
2017-02-22T00:08:51.327Z,9.72
2017-02-22T00:09:31.748Z,9.69
2017-02-22T00:10:12.189Z,9.73
2017-02-22T00:10:52.609Z,9.69
2017-02-22T00:11:33.065Z,9.73
2017-02-22T00:12:13.530Z,9.73
2017-02-22T00:12:53.987Z,9.72
2017-02-22T00:13:34.423Z,9.76
2017-02-22T00:14:14.873Z,9.73
2017-02-22T00:14:55.301Z,9.74
2017-02-22T00:15:35.725Z,9.67
2017-02-22T00:16:16.222Z,9.7
2017-02-22T00:16:56.655Z,9.69
2017-02-22T00:17:37.058Z,9.67
2017-02-22T00:18:17.549Z,9.69
2017-02-22T00:18:57.983Z,9.7
2017-02-22T00:19:38.963Z,9.73
2017-02-22T00:20:20.240Z,9.77
2017-02-22T00:21:00.691Z,9.67
2017-02-22T00:21:41.194Z,9.76
2017-02-22T00:22:21.661Z,9.67
2017-02-22T00:23:02.044Z,9.76
2017-02-22T00:23:43.962Z,9.76
2017-02-22T00:24:25.324Z,9.7
2017-02-22T00:25:05.780Z,9.73
2017-02-22T00:25:46.276Z,9.72
2017-02-22T00:26:26.783Z,9.74
2017-02-22T00:27:07.206Z,9.74
2017-02-22T00:27:47.670Z,9.8
2017-02-22T00:28:28.084Z,9.58
2017-02-22T00:29:08.531Z,9.72
2017-02-22T00:29:48.949Z,9.67
2017-02-22T00:30:29.438Z,9.69
2017-02-22T00:31:09.814Z,9.62
2017-02-22T00:31:50.274Z,9.67
2017-02-22T00:32:30.679Z,9.63
2017-02-22T00:33:11.165Z,9.64
2017-02-22T00:33:51.598Z,9.69
2017-02-22T00:34:32.985Z,9.69
2017-02-22T00:35:13.463Z,9.62
2017-02-22T00:35:53.919Z,9.64
2017-02-22T00:36:34.473Z,9.64
2017-02-22T00:37:14.903Z,9.66
2017-02-22T00:37:55.399Z,9.72
2017-02-22T00:38:35.876Z,9.66
2017-02-22T00:39:16.269Z,9.63
2017-02-22T00:39:56.681Z,9.69
2017-02-22T00:40:37.161Z,9.64
2017-02-22T00:41:18.224Z,9.63
2017-02-22T00:41:58.686Z,9.69
2017-02-22T00:42:40.003Z,9.64
2017-02-22T00:43:20.468Z,9.64
2017-02-22T00:44:00.923Z,9.67
2017-02-22T00:44:42.004Z,9.63
2017-02-22T00:45:22.521Z,9.62
2017-02-22T00:46:02.918Z,9.64
2017-02-22T00:46:43.396Z,9.62
2017-02-22T00:47:23.832Z,9.66
2017-02-22T00:48:04.375Z,9.62
2017-02-22T00:48:44.806Z,9.64
2017-02-22T00:49:25.290Z,9.59
2017-02-22T00:50:05.748Z,9.59
2017-02-22T00:50:46.202Z,9.66
2017-02-22T00:51:26.643Z,9.66
2017-02-22T00:52:07.094Z,9.7
2017-02-22T00:52:47.539Z,9.59
2017-02-22T00:53:27.974Z,9.55
2017-02-22T00:54:08.488Z,9.58
2017-02-22T00:54:48.931Z,9.67
2017-02-22T00:55:29.370Z,9.54
2017-02-22T00:56:09.853Z,9.63
2017-02-22T00:56:50.222Z,9.55
2017-02-22T00:57:30.677Z,9.58
2017-02-22T00:58:11.168Z,9.55
2017-02-22T00:58:51.606Z,9.56
2017-02-22T00:59:32.026Z,9.56
2017-02-22T01:00:12.477Z,9.52
2017-02-22T01:00:52.942Z,9.52
2017-02-22T01:01:33.367Z,9.54
2017-02-22T01:02:13.781Z,9.52
2017-02-22T01:02:54.312Z,9.56
2017-02-22T01:03:34.720Z,9.56
2017-02-22T01:04:15.190Z,9.56
2017-02-22T01:04:55.619Z,9.63
2017-02-22T01:05:36.066Z,9.59
2017-02-22T01:06:16.540Z,9.66
2017-02-22T01:06:56.990Z,9.62
2017-02-22T01:07:37.427Z,9.63
2017-02-22T01:08:17.823Z,9.64
2017-02-22T01:08:58.314Z,9.66
2017-02-22T01:09:38.774Z,9.58
2017-02-22T01:10:19.474Z,9.66
2017-02-22T01:10:59.948Z,9.63
2017-02-22T01:13:13.024Z,9.62
2017-02-22T01:13:53.500Z,9.51
2017-02-22T01:14:34.005Z,9.67
2017-02-22T01:15:14.493Z,9.63
2017-02-22T01:15:54.951Z,9.64
2017-02-22T01:16:35.436Z,9.54
2017-02-22T01:17:15.895Z,9.52
2017-02-22T01:17:56.360Z,9.56
2017-02-22T01:18:36.798Z,9.64
2017-02-22T01:19:17.280Z,9.55
2017-02-22T01:19:57.759Z,9.59
2017-02-22T01:20:38.211Z,9.64
2017-02-22T01:21:18.695Z,9.54
2017-02-22T01:21:59.143Z,9.58
2017-02-22T01:22:39.589Z,9.59
2017-02-22T01:23:20.099Z,9.62
2017-02-22T01:24:00.553Z,9.7
2017-02-22T01:24:41.002Z,9.66
2017-02-22T01:25:21.471Z,9.63
2017-02-22T01:26:01.916Z,9.62
2017-02-22T01:26:42.378Z,9.59
2017-02-22T01:27:22.836Z,9.66
2017-02-22T01:28:03.249Z,9.59
2017-02-22T01:28:43.742Z,9.59
2017-02-22T01:29:24.172Z,9.58
2017-02-22T20:12:07.077Z,9.73
2017-02-22T20:12:49.830Z,9.7
2017-02-22T20:13:31.077Z,9.84
2017-02-22T20:14:11.551Z,9.91
2017-02-22T20:14:52.560Z,9.88
2017-02-22T20:15:33.613Z,9.87
2017-02-22T20:16:14.018Z,9.85
2017-02-22T20:16:55.171Z,9.85
2017-02-22T20:17:35.636Z,9.77
2017-02-22T20:18:16.092Z,9.72
2017-02-22T20:18:57.472Z,9.72
2017-02-22T20:19:37.891Z,9.76
2017-02-22T20:20:18.270Z,9.72
2017-02-22T20:20:58.714Z,9.63
2017-02-22T20:21:39.185Z,9.64
2017-02-22T20:22:19.560Z,9.59
2017-02-22T20:23:00.148Z,9.62
2017-02-22T20:23:40.534Z,9.67
2017-02-22T20:24:20.935Z,9.51
2017-02-22T20:25:01.422Z,9.58
2017-02-22T20:25:41.917Z,9.49
2017-02-22T20:26:22.937Z,9.56
2017-02-22T20:27:03.436Z,9.56
2017-02-22T20:27:43.897Z,9.51
2017-02-22T20:28:24.313Z,9.58
2017-02-22T20:29:05.718Z,9.48
2017-02-22T20:29:46.253Z,9.49
2017-02-22T20:30:27.444Z,9.54
2017-02-22T20:31:07.872Z,9.45
2017-02-22T20:31:48.902Z,9.52
2017-02-22T20:32:30.211Z,9.55
2017-02-22T20:33:11.205Z,9.52
2017-02-22T20:33:52.295Z,9.49
2017-02-22T20:34:34.606Z,9.54
2017-02-22T20:35:15.790Z,9.51
2017-02-22T20:35:57.984Z,9.51
2017-02-22T20:36:38.445Z,9.59
2017-02-22T20:37:18.858Z,9.52
2017-02-22T20:37:59.320Z,9.52
2017-02-22T20:38:39.737Z,9.52
2017-02-22T20:39:20.159Z,9.45
2017-02-22T20:40:00.651Z,9.42
2017-02-22T20:40:41.096Z,9.49
2017-02-22T20:41:21.779Z,9.42
2017-02-22T20:42:02.567Z,9.33
2017-02-22T20:42:43.043Z,9.42
2017-02-22T20:43:24.203Z,9.44
2017-02-22T20:53:32.528Z,9.56
2017-02-22T20:54:12.973Z,9.63
2017-02-22T20:54:53.429Z,9.76
2017-02-22T20:55:34.602Z,9.7
2017-02-22T20:56:15.071Z,9.7
2017-02-22T20:56:56.488Z,9.67
2017-02-22T20:57:40.660Z,9.7
2017-02-22T20:59:18.133Z,9.58
2017-02-22T20:59:58.537Z,9.64
2017-02-22T21:00:40.943Z,9.51
2017-02-22T21:02:34.113Z,9.47
2017-02-22T21:03:15.282Z,9.48
2017-02-22T21:03:55.790Z,9.45
2017-02-22T21:04:36.247Z,9.4
2017-02-22T21:05:17.530Z,9.39
2017-02-22T21:06:01.790Z,9.39
2017-02-22T21:06:42.283Z,9.36
2017-02-22T21:07:22.693Z,9.34
2017-02-22T21:08:03.209Z,9.4
2017-02-22T21:08:46.188Z,9.4
2017-02-22T21:09:28.212Z,9.36
2017-02-22T21:10:10.303Z,9.34
2017-02-22T21:10:52.374Z,9.34
2017-02-22T21:11:36.276Z,9.36
2017-02-22T21:12:16.794Z,9.4
2017-02-22T21:13:04.994Z,9.29
2017-02-22T21:13:45.536Z,9.37
2017-02-22T21:14:27.804Z,9.34
2017-02-22T21:15:11.022Z,9.34
2017-02-22T21:15:59.534Z,9.29
2017-02-22T21:17:42.223Z,9.27
2017-02-22T21:18:22.662Z,9.31
2017-02-22T21:19:03.117Z,9.26
2017-02-22T21:19:43.623Z,9.29
2017-02-22T21:20:24.038Z,9.3
2017-02-22T21:21:05.947Z,9.31
2017-02-22T21:21:47.905Z,9.31
2017-02-22T21:22:29.898Z,9.33
2017-02-22T21:23:11.845Z,9.39
2017-02-22T21:23:53.456Z,9.31
2017-02-22T21:24:33.935Z,9.29
2017-02-22T21:25:14.425Z,9.4
2017-02-22T21:25:54.849Z,9.3
2017-02-22T21:26:35.303Z,9.33
2017-02-22T21:27:21.681Z,9.31
2017-02-22T21:28:02.754Z,9.31
2017-02-22T21:28:43.307Z,9.3
2017-02-22T21:29:23.732Z,9.33
2017-02-22T21:30:04.275Z,9.34
2017-02-22T21:30:44.720Z,9.31
2017-02-22T21:31:28.689Z,9.27
2017-02-22T21:32:09.143Z,9.29
2017-02-22T21:32:49.547Z,9.29
2017-02-22T21:33:29.985Z,9.31
2017-02-22T21:34:10.446Z,9.31
2017-02-22T21:34:52.840Z,9.18
2017-02-22T21:56:17.685Z,9.34
2017-02-22T21:56:59.561Z,9.47
2017-02-22T21:57:41.002Z,9.52
2017-02-22T21:58:21.425Z,9.59
2017-02-22T21:59:01.975Z,9.62
2017-02-22T21:59:42.387Z,9.7
2017-02-22T22:00:22.842Z,9.64
2017-02-22T22:01:03.200Z,9.58
2017-02-22T22:01:43.716Z,9.54
2017-02-22T22:02:24.262Z,9.54
2017-02-22T22:03:05.507Z,9.54
2017-02-22T22:03:45.923Z,9.45
2017-02-22T22:04:27.542Z,9.52
2017-02-22T22:05:07.947Z,9.48
2017-02-22T22:05:48.446Z,9.39
